sensor_id;sensor_type;location;lat;lon;timestamp;P1;durP1;ratioP1;P2;durP2;ratioP2
14516;SDS011;7344;50.864;4.362;2023-08-21T00:00:50;7.15;;;2.45;;
14516;SDS011;7344;50.864;4.362;2023-08-21T00:03:16;5.47;;;2.30;;
14516;SDS011;7344;50.864;4.362;2023-08-21T00:05:41;5.63;;;2.35;;
14516;SDS011;7344;50.864;4.362;2023-08-21T00:08:07;4.93;;;2.40;;
14516;SDS011;7344;50.864;4.362;2023-08-21T00:10:32;5.43;;;2.75;;
14516;SDS011;7344;50.864;4.362;2023-08-21T00:12:58;4.95;;;2.97;;
14516;SDS011;7344;50.864;4.362;2023-08-21T00:15:23;4.88;;;2.38;;
14516;SDS011;7344;50.864;4.362;2023-08-21T00:17:49;3.47;;;2.30;;
14516;SDS011;7344;50.864;4.362;2023-08-21T00:20:15;7.85;;;2.50;;
14516;SDS011;7344;50.864;4.362;2023-08-21T00:22:41;7.20;;;2.40;;
14516;SDS011;7344;50.864;4.362;2023-08-21T00:25:06;8.38;;;2.28;;
14516;SDS011;7344;50.864;4.362;2023-08-21T00:27:32;7.25;;;2.35;;
14516;SDS011;7344;50.864;4.362;2023-08-21T00:29:59;6.60;;;2.65;;
14516;SDS011;7344;50.864;4.362;2023-08-21T00:32:25;6.13;;;2.72;;
14516;SDS011;7344;50.864;4.362;2023-08-21T00:34:51;5.78;;;2.63;;
14516;SDS011;7344;50.864;4.362;2023-08-21T00:37:17;5.75;;;2.40;;
14516;SDS011;7344;50.864;4.362;2023-08-21T00:39:42;5.57;;;2.38;;
14516;SDS011;7344;50.864;4.362;2023-08-21T00:42:08;6.13;;;2.47;;
14516;SDS011;7344;50.864;4.362;2023-08-21T00:44:33;5.70;;;2.78;;
14516;SDS011;7344;50.864;4.362;2023-08-21T00:46:59;5.85;;;2.42;;
14516;SDS011;7344;50.864;4.362;2023-08-21T00:49:25;5.18;;;2.13;;
14516;SDS011;7344;50.864;4.362;2023-08-21T00:51:52;4.63;;;2.28;;
14516;SDS011;7344;50.864;4.362;2023-08-21T00:54:19;5.75;;;2.42;;
14516;SDS011;7344;50.864;4.362;2023-08-21T00:56:44;9.10;;;2.63;;
14516;SDS011;7344;50.864;4.362;2023-08-21T00:59:10;4.30;;;1.92;;
14516;SDS011;7344;50.864;4.362;2023-08-21T01:01:37;4.85;;;2.30;;
14516;SDS011;7344;50.864;4.362;2023-08-21T01:04:03;7.22;;;2.70;;
14516;SDS011;7344;50.864;4.362;2023-08-21T01:06:29;7.53;;;2.70;;
14516;SDS011;7344;50.864;4.362;2023-08-21T01:09:02;7.45;;;2.72;;
14516;SDS011;7344;50.864;4.362;2023-08-21T01:11:58;4.88;;;2.45;;
14516;SDS011;7344;50.864;4.362;2023-08-21T01:14:58;10.82;;;2.92;;
14516;SDS011;7344;50.864;4.362;2023-08-21T01:17:26;4.65;;;2.40;;
14516;SDS011;7344;50.864;4.362;2023-08-21T01:19:54;6.15;;;2.38;;
14516;SDS011;7344;50.864;4.362;2023-08-21T01:22:42;6.38;;;2.50;;
14516;SDS011;7344;50.864;4.362;2023-08-21T01:25:11;4.70;;;2.25;;
14516;SDS011;7344;50.864;4.362;2023-08-21T01:27:40;6.03;;;2.80;;
14516;SDS011;7344;50.864;4.362;2023-08-21T01:30:07;3.67;;;2.80;;
14516;SDS011;7344;50.864;4.362;2023-08-21T01:35:13;5.90;;;2.85;;
14516;SDS011;7344;50.864;4.362;2023-08-21T01:37:39;6.05;;;2.53;;
14516;SDS011;7344;50.864;4.362;2023-08-21T01:40:05;8.10;;;3.05;;
14516;SDS011;7344;50.864;4.362;2023-08-21T01:42:32;6.55;;;2.78;;
14516;SDS011;7344;50.864;4.362;2023-08-21T01:44:57;7.18;;;2.70;;
14516;SDS011;7344;50.864;4.362;2023-08-21T01:47:23;6.45;;;2.80;;
14516;SDS011;7344;50.864;4.362;2023-08-21T01:49:48;8.27;;;2.60;;
14516;SDS011;7344;50.864;4.362;2023-08-21T01:52:17;9.60;;;3.00;;
14516;SDS011;7344;50.864;4.362;2023-08-21T01:54:43;6.82;;;2.40;;
14516;SDS011;7344;50.864;4.362;2023-08-21T01:57:09;9.55;;;2.55;;
14516;SDS011;7344;50.864;4.362;2023-08-21T01:59:34;8.35;;;3.10;;
14516;SDS011;7344;50.864;4.362;2023-08-21T02:02:00;6.70;;;2.45;;
14516;SDS011;7344;50.864;4.362;2023-08-21T02:04:25;6.22;;;2.55;;
14516;SDS011;7344;50.864;4.362;2023-08-21T02:06:51;8.82;;;2.60;;
14516;SDS011;7344;50.864;4.362;2023-08-21T02:09:17;3.42;;;2.45;;
14516;SDS011;7344;50.864;4.362;2023-08-21T02:11:42;8.80;;;2.88;;
14516;SDS011;7344;50.864;4.362;2023-08-21T02:14:08;6.68;;;2.65;;
14516;SDS011;7344;50.864;4.362;2023-08-21T02:16:33;6.90;;;2.90;;
14516;SDS011;7344;50.864;4.362;2023-08-21T02:18:59;6.40;;;2.55;;
14516;SDS011;7344;50.864;4.362;2023-08-21T02:21:25;7.70;;;2.80;;
14516;SDS011;7344;50.864;4.362;2023-08-21T02:23:50;5.97;;;2.80;;
14516;SDS011;7344;50.864;4.362;2023-08-21T02:26:16;11.35;;;3.47;;
14516;SDS011;7344;50.864;4.362;2023-08-21T02:28:41;7.30;;;3.00;;
14516;SDS011;7344;50.864;4.362;2023-08-21T02:31:09;7.88;;;3.15;;
14516;SDS011;7344;50.864;4.362;2023-08-21T02:33:35;10.85;;;3.13;;
14516;SDS011;7344;50.864;4.362;2023-08-21T02:36:01;6.78;;;2.60;;
14516;SDS011;7344;50.864;4.362;2023-08-21T02:38:27;9.00;;;3.15;;
14516;SDS011;7344;50.864;4.362;2023-08-21T02:40:53;7.63;;;2.65;;
14516;SDS011;7344;50.864;4.362;2023-08-21T02:43:19;8.15;;;2.83;;
14516;SDS011;7344;50.864;4.362;2023-08-21T02:45:45;6.30;;;3.05;;
14516;SDS011;7344;50.864;4.362;2023-08-21T02:48:10;11.38;;;3.33;;
14516;SDS011;7344;50.864;4.362;2023-08-21T02:50:36;4.68;;;2.60;;
14516;SDS011;7344;50.864;4.362;2023-08-21T02:53:01;6.90;;;2.88;;
14516;SDS011;7344;50.864;4.362;2023-08-21T02:55:27;10.70;;;3.40;;
14516;SDS011;7344;50.864;4.362;2023-08-21T02:57:53;7.78;;;3.10;;
14516;SDS011;7344;50.864;4.362;2023-08-21T03:00:18;7.22;;;2.75;;
14516;SDS011;7344;50.864;4.362;2023-08-21T03:02:44;7.20;;;3.08;;
14516;SDS011;7344;50.864;4.362;2023-08-21T03:05:10;5.32;;;2.80;;
14516;SDS011;7344;50.864;4.362;2023-08-21T03:07:36;8.77;;;2.95;;
14516;SDS011;7344;50.864;4.362;2023-08-21T03:10:02;7.68;;;2.85;;
14516;SDS011;7344;50.864;4.362;2023-08-21T03:12:28;6.38;;;2.63;;
14516;SDS011;7344;50.864;4.362;2023-08-21T03:14:53;8.05;;;3.50;;
14516;SDS011;7344;50.864;4.362;2023-08-21T03:17:19;9.38;;;3.25;;
14516;SDS011;7344;50.864;4.362;2023-08-21T03:19:45;9.02;;;2.95;;
14516;SDS011;7344;50.864;4.362;2023-08-21T03:22:10;6.20;;;3.15;;
14516;SDS011;7344;50.864;4.362;2023-08-21T03:24:36;8.30;;;2.97;;
14516;SDS011;7344;50.864;4.362;2023-08-21T03:27:02;5.95;;;2.88;;
14516;SDS011;7344;50.864;4.362;2023-08-21T03:29:27;7.50;;;2.80;;
14516;SDS011;7344;50.864;4.362;2023-08-21T03:31:53;9.88;;;3.25;;
14516;SDS011;7344;50.864;4.362;2023-08-21T03:34:21;6.75;;;2.83;;
14516;SDS011;7344;50.864;4.362;2023-08-21T03:36:47;8.00;;;2.88;;
14516;SDS011;7344;50.864;4.362;2023-08-21T03:39:13;11.05;;;2.78;;
14516;SDS011;7344;50.864;4.362;2023-08-21T03:41:38;4.90;;;2.92;;
14516;SDS011;7344;50.864;4.362;2023-08-21T03:44:04;9.48;;;3.42;;
14516;SDS011;7344;50.864;4.362;2023-08-21T03:46:30;7.85;;;3.28;;
14516;SDS011;7344;50.864;4.362;2023-08-21T03:48:55;7.35;;;3.13;;
14516;SDS011;7344;50.864;4.362;2023-08-21T03:51:21;7.07;;;3.45;;
14516;SDS011;7344;50.864;4.362;2023-08-21T03:53:46;7.13;;;3.38;;
14516;SDS011;7344;50.864;4.362;2023-08-21T03:56:12;8.00;;;3.30;;
14516;SDS011;7344;50.864;4.362;2023-08-21T03:58:38;6.82;;;3.67;;
14516;SDS011;7344;50.864;4.362;2023-08-21T04:01:03;11.13;;;3.15;;
14516;SDS011;7344;50.864;4.362;2023-08-21T04:03:29;10.20;;;3.65;;
14516;SDS011;7344;50.864;4.362;2023-08-21T04:05:55;7.50;;;3.08;;
14516;SDS011;7344;50.864;4.362;2023-08-21T04:08:21;9.65;;;3.40;;
14516;SDS011;7344;50.864;4.362;2023-08-21T04:10:47;10.38;;;3.63;;
14516;SDS011;7344;50.864;4.362;2023-08-21T04:13:13;6.88;;;3.40;;
14516;SDS011;7344;50.864;4.362;2023-08-21T04:15:38;9.63;;;3.60;;
14516;SDS011;7344;50.864;4.362;2023-08-21T04:18:09;10.63;;;4.13;;
14516;SDS011;7344;50.864;4.362;2023-08-21T04:20:34;9.38;;;3.80;;
14516;SDS011;7344;50.864;4.362;2023-08-21T04:23:00;8.63;;;3.65;;
14516;SDS011;7344;50.864;4.362;2023-08-21T04:25:26;7.45;;;3.90;;
14516;SDS011;7344;50.864;4.362;2023-08-21T04:27:51;8.03;;;4.00;;
14516;SDS011;7344;50.864;4.362;2023-08-21T04:30:17;9.77;;;4.05;;
14516;SDS011;7344;50.864;4.362;2023-08-21T04:32:42;8.75;;;4.15;;
14516;SDS011;7344;50.864;4.362;2023-08-21T04:35:08;10.30;;;4.32;;
14516;SDS011;7344;50.864;4.362;2023-08-21T04:37:34;10.48;;;3.83;;
14516;SDS011;7344;50.864;4.362;2023-08-21T04:39:59;8.52;;;4.35;;
14516;SDS011;7344;50.864;4.362;2023-08-21T04:42:25;9.02;;;3.95;;
14516;SDS011;7344;50.864;4.362;2023-08-21T04:44:51;8.73;;;3.90;;
14516;SDS011;7344;50.864;4.362;2023-08-21T04:47:26;12.52;;;4.40;;
14516;SDS011;7344;50.864;4.362;2023-08-21T04:49:52;10.10;;;4.03;;
14516;SDS011;7344;50.864;4.362;2023-08-21T04:52:19;10.52;;;3.78;;
14516;SDS011;7344;50.864;4.362;2023-08-21T04:54:46;13.13;;;4.05;;
14516;SDS011;7344;50.864;4.362;2023-08-21T04:57:12;9.82;;;3.72;;
14516;SDS011;7344;50.864;4.362;2023-08-21T04:59:38;9.05;;;3.25;;
14516;SDS011;7344;50.864;4.362;2023-08-21T05:02:04;13.48;;;3.22;;
14516;SDS011;7344;50.864;4.362;2023-08-21T05:04:30;8.95;;;3.58;;
14516;SDS011;7344;50.864;4.362;2023-08-21T05:06:56;9.73;;;3.53;;
14516;SDS011;7344;50.864;4.362;2023-08-21T05:09:21;10.40;;;3.05;;
14516;SDS011;7344;50.864;4.362;2023-08-21T05:11:47;10.30;;;3.47;;
14516;SDS011;7344;50.864;4.362;2023-08-21T05:14:13;8.65;;;3.05;;
14516;SDS011;7344;50.864;4.362;2023-08-21T05:16:38;8.13;;;2.78;;
14516;SDS011;7344;50.864;4.362;2023-08-21T05:19:04;20.40;;;3.63;;
14516;SDS011;7344;50.864;4.362;2023-08-21T05:21:29;9.55;;;3.20;;
14516;SDS011;7344;50.864;4.362;2023-08-21T05:23:55;18.15;;;3.08;;
14516;SDS011;7344;50.864;4.362;2023-08-21T05:26:21;9.57;;;2.80;;
14516;SDS011;7344;50.864;4.362;2023-08-21T05:28:46;8.88;;;2.67;;
14516;SDS011;7344;50.864;4.362;2023-08-21T05:31:12;10.65;;;2.47;;
14516;SDS011;7344;50.864;4.362;2023-08-21T05:33:37;7.93;;;3.00;;
14516;SDS011;7344;50.864;4.362;2023-08-21T05:36:04;12.05;;;3.20;;
14516;SDS011;7344;50.864;4.362;2023-08-21T05:38:30;7.72;;;2.90;;
14516;SDS011;7344;50.864;4.362;2023-08-21T05:40:56;10.27;;;2.70;;
14516;SDS011;7344;50.864;4.362;2023-08-21T05:43:22;12.88;;;3.13;;
14516;SDS011;7344;50.864;4.362;2023-08-21T05:45:47;8.93;;;2.80;;
14516;SDS011;7344;50.864;4.362;2023-08-21T05:48:13;8.15;;;2.85;;
14516;SDS011;7344;50.864;4.362;2023-08-21T05:50:39;6.38;;;2.92;;
14516;SDS011;7344;50.864;4.362;2023-08-21T05:53:05;10.20;;;2.90;;
14516;SDS011;7344;50.864;4.362;2023-08-21T05:55:31;9.77;;;2.60;;
14516;SDS011;7344;50.864;4.362;2023-08-21T05:57:58;5.72;;;2.35;;
14516;SDS011;7344;50.864;4.362;2023-08-21T06:00:23;8.80;;;2.80;;
14516;SDS011;7344;50.864;4.362;2023-08-21T06:02:49;10.43;;;3.03;;
14516;SDS011;7344;50.864;4.362;2023-08-21T06:05:15;7.43;;;3.30;;
14516;SDS011;7344;50.864;4.362;2023-08-21T06:07:40;11.57;;;3.90;;
14516;SDS011;7344;50.864;4.362;2023-08-21T06:10:07;7.78;;;3.30;;
14516;SDS011;7344;50.864;4.362;2023-08-21T06:12:33;9.25;;;3.35;;
14516;SDS011;7344;50.864;4.362;2023-08-21T06:14:59;10.15;;;3.90;;
14516;SDS011;7344;50.864;4.362;2023-08-21T06:17:26;7.07;;;3.30;;
14516;SDS011;7344;50.864;4.362;2023-08-21T06:19:52;8.93;;;4.03;;
14516;SDS011;7344;50.864;4.362;2023-08-21T06:22:18;11.25;;;4.00;;
14516;SDS011;7344;50.864;4.362;2023-08-21T06:24:44;9.18;;;3.67;;
14516;SDS011;7344;50.864;4.362;2023-08-21T06:27:09;11.10;;;4.43;;
14516;SDS011;7344;50.864;4.362;2023-08-21T06:29:35;7.78;;;4.00;;
14516;SDS011;7344;50.864;4.362;2023-08-21T06:32:02;11.23;;;5.25;;
14516;SDS011;7344;50.864;4.362;2023-08-21T06:34:28;11.38;;;4.13;;
14516;SDS011;7344;50.864;4.362;2023-08-21T06:36:54;8.88;;;4.72;;
14516;SDS011;7344;50.864;4.362;2023-08-21T06:39:19;10.95;;;4.07;;
14516;SDS011;7344;50.864;4.362;2023-08-21T06:41:45;9.27;;;4.55;;
14516;SDS011;7344;50.864;4.362;2023-08-21T06:44:10;8.20;;;4.75;;
14516;SDS011;7344;50.864;4.362;2023-08-21T06:46:36;7.72;;;3.88;;
14516;SDS011;7344;50.864;4.362;2023-08-21T06:49:02;6.93;;;4.10;;
14516;SDS011;7344;50.864;4.362;2023-08-21T06:51:28;10.35;;;5.43;;
14516;SDS011;7344;50.864;4.362;2023-08-21T06:53:54;8.90;;;3.70;;
14516;SDS011;7344;50.864;4.362;2023-08-21T06:56:19;7.72;;;3.70;;
14516;SDS011;7344;50.864;4.362;2023-08-21T06:58:45;7.43;;;3.25;;
14516;SDS011;7344;50.864;4.362;2023-08-21T07:01:10;7.93;;;3.50;;
14516;SDS011;7344;50.864;4.362;2023-08-21T07:03:36;7.35;;;3.72;;
14516;SDS011;7344;50.864;4.362;2023-08-21T07:06:02;5.22;;;3.33;;
14516;SDS011;7344;50.864;4.362;2023-08-21T07:08:28;8.38;;;3.50;;
14516;SDS011;7344;50.864;4.362;2023-08-21T07:10:54;8.93;;;3.58;;
14516;SDS011;7344;50.864;4.362;2023-08-21T07:13:20;7.78;;;3.60;;
14516;SDS011;7344;50.864;4.362;2023-08-21T07:15:46;7.15;;;3.50;;
14516;SDS011;7344;50.864;4.362;2023-08-21T07:18:12;7.90;;;3.25;;
14516;SDS011;7344;50.864;4.362;2023-08-21T07:20:38;8.23;;;3.50;;
14516;SDS011;7344;50.864;4.362;2023-08-21T07:23:04;7.10;;;3.45;;
14516;SDS011;7344;50.864;4.362;2023-08-21T07:25:29;8.15;;;3.95;;
14516;SDS011;7344;50.864;4.362;2023-08-21T07:27:56;7.95;;;3.60;;
14516;SDS011;7344;50.864;4.362;2023-08-21T07:30:22;7.28;;;3.70;;
14516;SDS011;7344;50.864;4.362;2023-08-21T07:32:48;8.73;;;3.42;;
14516;SDS011;7344;50.864;4.362;2023-08-21T07:35:13;7.40;;;3.70;;
14516;SDS011;7344;50.864;4.362;2023-08-21T07:37:39;7.10;;;3.65;;
14516;SDS011;7344;50.864;4.362;2023-08-21T07:40:09;11.25;;;3.65;;
14516;SDS011;7344;50.864;4.362;2023-08-21T07:42:34;7.88;;;3.50;;
14516;SDS011;7344;50.864;4.362;2023-08-21T07:45:00;7.28;;;3.40;;
14516;SDS011;7344;50.864;4.362;2023-08-21T07:47:29;7.53;;;2.90;;
14516;SDS011;7344;50.864;4.362;2023-08-21T07:49:55;5.63;;;3.50;;
14516;SDS011;7344;50.864;4.362;2023-08-21T07:52:22;8.05;;;3.70;;
14516;SDS011;7344;50.864;4.362;2023-08-21T07:54:52;9.65;;;3.25;;
14516;SDS011;7344;50.864;4.362;2023-08-21T07:57:18;7.55;;;3.55;;
14516;SDS011;7344;50.864;4.362;2023-08-21T07:59:43;9.25;;;3.88;;
14516;SDS011;7344;50.864;4.362;2023-08-21T08:02:09;10.65;;;4.20;;
14516;SDS011;7344;50.864;4.362;2023-08-21T08:04:37;12.63;;;3.78;;
14516;SDS011;7344;50.864;4.362;2023-08-21T08:07:03;9.60;;;3.70;;
14516;SDS011;7344;50.864;4.362;2023-08-21T08:09:29;7.30;;;3.60;;
14516;SDS011;7344;50.864;4.362;2023-08-21T08:11:55;8.40;;;3.80;;
14516;SDS011;7344;50.864;4.362;2023-08-21T08:14:21;8.13;;;4.07;;
14516;SDS011;7344;50.864;4.362;2023-08-21T08:16:46;8.82;;;3.78;;
14516;SDS011;7344;50.864;4.362;2023-08-21T08:19:12;6.60;;;3.50;;
14516;SDS011;7344;50.864;4.362;2023-08-21T08:21:38;14.02;;;4.63;;
14516;SDS011;7344;50.864;4.362;2023-08-21T08:24:04;10.30;;;5.15;;
14516;SDS011;7344;50.864;4.362;2023-08-21T08:26:29;10.27;;;5.53;;
14516;SDS011;7344;50.864;4.362;2023-08-21T08:28:55;11.10;;;6.75;;
14516;SDS011;7344;50.864;4.362;2023-08-21T08:31:21;10.15;;;5.10;;
14516;SDS011;7344;50.864;4.362;2023-08-21T08:33:48;10.25;;;5.82;;
14516;SDS011;7344;50.864;4.362;2023-08-21T08:36:14;9.93;;;4.72;;
14516;SDS011;7344;50.864;4.362;2023-08-21T08:38:40;11.65;;;6.13;;
14516;SDS011;7344;50.864;4.362;2023-08-21T08:41:07;12.80;;;5.20;;
14516;SDS011;7344;50.864;4.362;2023-08-21T08:43:37;11.25;;;5.50;;
14516;SDS011;7344;50.864;4.362;2023-08-21T08:46:05;11.05;;;5.38;;
14516;SDS011;7344;50.864;4.362;2023-08-21T08:48:33;8.40;;;5.50;;
14516;SDS011;7344;50.864;4.362;2023-08-21T08:51:02;7.82;;;4.53;;
14516;SDS011;7344;50.864;4.362;2023-08-21T08:53:31;6.85;;;4.30;;
14516;SDS011;7344;50.864;4.362;2023-08-21T08:55:57;9.55;;;4.30;;
14516;SDS011;7344;50.864;4.362;2023-08-21T08:58:23;8.57;;;4.22;;
14516;SDS011;7344;50.864;4.362;2023-08-21T09:00:49;9.65;;;4.50;;
14516;SDS011;7344;50.864;4.362;2023-08-21T09:03:15;6.97;;;4.78;;
14516;SDS011;7344;50.864;4.362;2023-08-21T09:05:41;8.57;;;3.80;;
14516;SDS011;7344;50.864;4.362;2023-08-21T09:08:13;6.28;;;3.80;;
14516;SDS011;7344;50.864;4.362;2023-08-21T09:10:39;7.10;;;3.50;;
14516;SDS011;7344;50.864;4.362;2023-08-21T09:13:10;5.60;;;3.30;;
14516;SDS011;7344;50.864;4.362;2023-08-21T09:15:41;5.75;;;4.93;;
14516;SDS011;7344;50.864;4.362;2023-08-21T09:18:09;3.15;;;2.20;;
14516;SDS011;7344;50.864;4.362;2023-08-21T09:20:35;5.13;;;2.25;;
14516;SDS011;7344;50.864;4.362;2023-08-21T09:23:01;4.43;;;2.30;;
14516;SDS011;7344;50.864;4.362;2023-08-21T09:25:28;7.18;;;3.70;;
14516;SDS011;7344;50.864;4.362;2023-08-21T09:28:01;3.78;;;2.38;;
14516;SDS011;7344;50.864;4.362;2023-08-21T09:30:29;3.13;;;2.20;;
14516;SDS011;7344;50.864;4.362;2023-08-21T09:32:56;3.90;;;2.65;;
14516;SDS011;7344;50.864;4.362;2023-08-21T09:35:25;4.18;;;2.65;;
14516;SDS011;7344;50.864;4.362;2023-08-21T09:37:51;4.95;;;2.50;;
14516;SDS011;7344;50.864;4.362;2023-08-21T09:40:20;6.53;;;2.92;;
14516;SDS011;7344;50.864;4.362;2023-08-21T09:42:51;5.68;;;3.08;;
14516;SDS011;7344;50.864;4.362;2023-08-21T09:45:24;5.35;;;3.20;;
14516;SDS011;7344;50.864;4.362;2023-08-21T09:47:53;5.45;;;3.17;;
14516;SDS011;7344;50.864;4.362;2023-08-21T09:50:19;7.72;;;3.17;;
14516;SDS011;7344;50.864;4.362;2023-08-21T09:52:46;4.10;;;3.00;;
14516;SDS011;7344;50.864;4.362;2023-08-21T09:55:13;4.65;;;2.35;;
14516;SDS011;7344;50.864;4.362;2023-08-21T09:57:40;5.72;;;2.42;;
14516;SDS011;7344;50.864;4.362;2023-08-21T10:00:08;3.28;;;2.30;;
14516;SDS011;7344;50.864;4.362;2023-08-21T10:02:47;4.00;;;1.90;;
14516;SDS011;7344;50.864;4.362;2023-08-21T10:05:18;2.40;;;1.58;;
14516;SDS011;7344;50.864;4.362;2023-08-21T10:07:48;4.15;;;2.25;;
14516;SDS011;7344;50.864;4.362;2023-08-21T10:10:15;4.07;;;1.80;;
14516;SDS011;7344;50.864;4.362;2023-08-21T10:12:42;3.30;;;2.33;;
14516;SDS011;7344;50.864;4.362;2023-08-21T10:15:08;2.78;;;2.00;;
14516;SDS011;7344;50.864;4.362;2023-08-21T10:17:35;2.47;;;2.00;;
14516;SDS011;7344;50.864;4.362;2023-08-21T10:20:04;3.45;;;1.90;;
14516;SDS011;7344;50.864;4.362;2023-08-21T10:25:14;4.22;;;2.00;;
14516;SDS011;7344;50.864;4.362;2023-08-21T10:27:40;3.75;;;2.05;;
14516;SDS011;7344;50.864;4.362;2023-08-21T10:30:28;2.35;;;1.70;;
14516;SDS011;7344;50.864;4.362;2023-08-21T10:32:54;3.35;;;1.38;;
14516;SDS011;7344;50.864;4.362;2023-08-21T10:35:23;1.63;;;1.50;;
14516;SDS011;7344;50.864;4.362;2023-08-21T10:38:09;2.03;;;1.30;;
14516;SDS011;7344;50.864;4.362;2023-08-21T10:43:40;2.72;;;1.90;;
14516;SDS011;7344;50.864;4.362;2023-08-21T10:46:06;2.60;;;1.30;;
14516;SDS011;7344;50.864;4.362;2023-08-21T10:48:33;2.88;;;1.40;;
14516;SDS011;7344;50.864;4.362;2023-08-21T10:51:03;1.42;;;1.08;;
14516;SDS011;7344;50.864;4.362;2023-08-21T10:53:30;3.00;;;1.83;;
14516;SDS011;7344;50.864;4.362;2023-08-21T10:56:00;2.90;;;1.70;;
14516;SDS011;7344;50.864;4.362;2023-08-21T10:58:26;4.45;;;1.80;;
14516;SDS011;7344;50.864;4.362;2023-08-21T11:00:58;2.50;;;1.33;;
14516;SDS011;7344;50.864;4.362;2023-08-21T11:03:24;2.90;;;1.75;;
14516;SDS011;7344;50.864;4.362;2023-08-21T11:06:00;2.53;;;1.58;;
14516;SDS011;7344;50.864;4.362;2023-08-21T11:08:29;4.25;;;2.72;;
14516;SDS011;7344;50.864;4.362;2023-08-21T11:10:57;2.00;;;1.58;;
14516;SDS011;7344;50.864;4.362;2023-08-21T11:13:25;4.78;;;2.00;;
14516;SDS011;7344;50.864;4.362;2023-08-21T11:16:01;4.70;;;2.60;;
14516;SDS011;7344;50.864;4.362;2023-08-21T11:18:32;3.83;;;2.15;;
14516;SDS011;7344;50.864;4.362;2023-08-21T11:21:06;2.58;;;1.92;;
14516;SDS011;7344;50.864;4.362;2023-08-21T11:23:34;5.10;;;2.20;;
14516;SDS011;7344;50.864;4.362;2023-08-21T11:26:00;4.20;;;1.70;;
14516;SDS011;7344;50.864;4.362;2023-08-21T11:28:28;1.70;;;1.50;;
14516;SDS011;7344;50.864;4.362;2023-08-21T11:30:55;2.53;;;1.60;;
14516;SDS011;7344;50.864;4.362;2023-08-21T11:33:21;3.03;;;1.60;;
14516;SDS011;7344;50.864;4.362;2023-08-21T11:35:47;3.72;;;2.00;;
14516;SDS011;7344;50.864;4.362;2023-08-21T11:38:22;3.58;;;1.70;;
14516;SDS011;7344;50.864;4.362;2023-08-21T11:40:59;3.70;;;1.65;;
14516;SDS011;7344;50.864;4.362;2023-08-21T11:43:37;4.45;;;1.58;;
14516;SDS011;7344;50.864;4.362;2023-08-21T11:46:05;4.10;;;2.42;;
14516;SDS011;7344;50.864;4.362;2023-08-21T11:48:31;3.55;;;2.10;;
14516;SDS011;7344;50.864;4.362;2023-08-21T11:50:58;5.32;;;2.15;;
14516;SDS011;7344;50.864;4.362;2023-08-21T11:53:37;7.10;;;1.85;;
14516;SDS011;7344;50.864;4.362;2023-08-21T11:56:13;3.00;;;1.90;;
14516;SDS011;7344;50.864;4.362;2023-08-21T11:58:41;6.40;;;1.85;;
14516;SDS011;7344;50.864;4.362;2023-08-21T12:01:08;4.35;;;1.88;;
14516;SDS011;7344;50.864;4.362;2023-08-21T12:03:35;4.10;;;1.58;;
14516;SDS011;7344;50.864;4.362;2023-08-21T12:06:09;2.33;;;1.40;;
14516;SDS011;7344;50.864;4.362;2023-08-21T12:08:36;12.63;;;2.92;;
14516;SDS011;7344;50.864;4.362;2023-08-21T12:11:02;6.78;;;2.17;;
14516;SDS011;7344;50.864;4.362;2023-08-21T12:13:29;5.70;;;2.28;;
14516;SDS011;7344;50.864;4.362;2023-08-21T12:15:55;4.28;;;1.88;;
14516;SDS011;7344;50.864;4.362;2023-08-21T12:18:20;4.13;;;1.83;;
14516;SDS011;7344;50.864;4.362;2023-08-21T12:20:46;5.43;;;2.75;;
14516;SDS011;7344;50.864;4.362;2023-08-21T12:23:12;2.92;;;1.88;;
14516;SDS011;7344;50.864;4.362;2023-08-21T12:25:37;6.43;;;2.47;;
14516;SDS011;7344;50.864;4.362;2023-08-21T12:28:03;4.45;;;2.25;;
14516;SDS011;7344;50.864;4.362;2023-08-21T12:30:31;7.35;;;1.92;;
14516;SDS011;7344;50.864;4.362;2023-08-21T12:32:57;4.22;;;2.15;;
14516;SDS011;7344;50.864;4.362;2023-08-21T12:35:22;3.70;;;1.90;;
14516;SDS011;7344;50.864;4.362;2023-08-21T12:37:48;2.25;;;1.70;;
14516;SDS011;7344;50.864;4.362;2023-08-21T12:40:14;2.75;;;2.00;;
14516;SDS011;7344;50.864;4.362;2023-08-21T12:42:39;4.35;;;2.00;;
14516;SDS011;7344;50.864;4.362;2023-08-21T12:45:05;4.60;;;2.53;;
14516;SDS011;7344;50.864;4.362;2023-08-21T12:47:31;3.08;;;2.13;;
14516;SDS011;7344;50.864;4.362;2023-08-21T12:49:57;3.47;;;1.98;;
14516;SDS011;7344;50.864;4.362;2023-08-21T12:52:23;5.22;;;2.30;;
14516;SDS011;7344;50.864;4.362;2023-08-21T12:54:49;4.22;;;2.47;;
14516;SDS011;7344;50.864;4.362;2023-08-21T12:57:14;2.63;;;2.13;;
14516;SDS011;7344;50.864;4.362;2023-08-21T12:59:41;4.13;;;2.25;;
14516;SDS011;7344;50.864;4.362;2023-08-21T13:02:07;3.72;;;2.70;;
14516;SDS011;7344;50.864;4.362;2023-08-21T13:04:33;6.32;;;3.30;;
14516;SDS011;7344;50.864;4.362;2023-08-21T13:06:58;2.85;;;2.05;;
14516;SDS011;7344;50.864;4.362;2023-08-21T13:09:25;5.03;;;2.33;;
14516;SDS011;7344;50.864;4.362;2023-08-21T13:11:51;7.95;;;3.13;;
14516;SDS011;7344;50.864;4.362;2023-08-21T13:14:16;3.30;;;2.05;;
14516;SDS011;7344;50.864;4.362;2023-08-21T13:16:42;5.82;;;2.00;;
14516;SDS011;7344;50.864;4.362;2023-08-21T13:19:08;3.10;;;1.77;;
14516;SDS011;7344;50.864;4.362;2023-08-21T13:21:33;4.38;;;1.98;;
14516;SDS011;7344;50.864;4.362;2023-08-21T13:23:59;2.88;;;1.80;;
14516;SDS011;7344;50.864;4.362;2023-08-21T13:26:24;2.42;;;1.90;;
14516;SDS011;7344;50.864;4.362;2023-08-21T13:28:50;3.17;;;2.10;;
14516;SDS011;7344;50.864;4.362;2023-08-21T13:31:16;2.33;;;1.63;;
14516;SDS011;7344;50.864;4.362;2023-08-21T13:33:48;1.60;;;1.40;;
14516;SDS011;7344;50.864;4.362;2023-08-21T13:36:15;4.82;;;1.85;;
14516;SDS011;7344;50.864;4.362;2023-08-21T13:38:43;2.63;;;1.70;;
14516;SDS011;7344;50.864;4.362;2023-08-21T13:41:08;1.92;;;1.73;;
14516;SDS011;7344;50.864;4.362;2023-08-21T13:43:34;4.05;;;1.80;;
14516;SDS011;7344;50.864;4.362;2023-08-21T13:46:01;3.08;;;1.60;;
14516;SDS011;7344;50.864;4.362;2023-08-21T13:48:28;2.47;;;1.70;;
14516;SDS011;7344;50.864;4.362;2023-08-21T13:50:55;2.42;;;1.58;;
14516;SDS011;7344;50.864;4.362;2023-08-21T13:53:21;1.55;;;1.45;;
14516;SDS011;7344;50.864;4.362;2023-08-21T13:55:46;4.35;;;1.75;;
14516;SDS011;7344;50.864;4.362;2023-08-21T13:58:12;2.33;;;1.63;;
14516;SDS011;7344;50.864;4.362;2023-08-21T14:00:37;2.20;;;1.65;;
14516;SDS011;7344;50.864;4.362;2023-08-21T14:03:03;2.10;;;1.70;;
14516;SDS011;7344;50.864;4.362;2023-08-21T14:05:29;1.48;;;1.38;;
14516;SDS011;7344;50.864;4.362;2023-08-21T14:07:56;1.77;;;1.38;;
14516;SDS011;7344;50.864;4.362;2023-08-21T14:10:22;3.47;;;1.30;;
14516;SDS011;7344;50.864;4.362;2023-08-21T14:12:48;4.15;;;1.50;;
14516;SDS011;7344;50.864;4.362;2023-08-21T14:15:14;3.85;;;1.55;;
14516;SDS011;7344;50.864;4.362;2023-08-21T14:17:39;3.90;;;1.48;;
14516;SDS011;7344;50.864;4.362;2023-08-21T14:20:06;1.63;;;1.10;;
14516;SDS011;7344;50.864;4.362;2023-08-21T14:22:32;2.58;;;1.23;;
14516;SDS011;7344;50.864;4.362;2023-08-21T14:24:58;2.47;;;1.40;;
14516;SDS011;7344;50.864;4.362;2023-08-21T14:27:24;3.35;;;1.70;;
14516;SDS011;7344;50.864;4.362;2023-08-21T14:29:49;4.40;;;1.85;;
14516;SDS011;7344;50.864;4.362;2023-08-21T14:32:15;2.13;;;1.42;;
14516;SDS011;7344;50.864;4.362;2023-08-21T14:34:41;3.33;;;1.27;;
14516;SDS011;7344;50.864;4.362;2023-08-21T14:37:06;1.85;;;1.23;;
14516;SDS011;7344;50.864;4.362;2023-08-21T14:39:32;2.47;;;1.08;;
14516;SDS011;7344;50.864;4.362;2023-08-21T14:41:58;1.48;;;1.25;;
14516;SDS011;7344;50.864;4.362;2023-08-21T14:44:24;2.97;;;1.42;;
14516;SDS011;7344;50.864;4.362;2023-08-21T14:46:53;3.47;;;1.55;;
14516;SDS011;7344;50.864;4.362;2023-08-21T14:49:19;2.92;;;1.63;;
14516;SDS011;7344;50.864;4.362;2023-08-21T14:51:45;2.15;;;1.00;;
14516;SDS011;7344;50.864;4.362;2023-08-21T14:54:11;3.67;;;1.20;;
14516;SDS011;7344;50.864;4.362;2023-08-21T14:56:37;4.05;;;1.10;;
14516;SDS011;7344;50.864;4.362;2023-08-21T14:59:02;1.45;;;1.33;;
14516;SDS011;7344;50.864;4.362;2023-08-21T15:01:29;1.00;;;0.85;;
14516;SDS011;7344;50.864;4.362;2023-08-21T15:03:55;0.95;;;0.80;;
14516;SDS011;7344;50.864;4.362;2023-08-21T15:06:20;1.48;;;1.00;;